Time;durP1;ratioP1;P1;durP2;ratioP2;P2;SDS_P1;SDS_P2;PMS_P1;PMS_P2;Temp;Humidity;BMP_temperature;BMP_pressure;BME280_temperature;BME280_humidity;BME280_pressure;Samples;Min_cycle;Max_cycle;Signal;HPM_P1;HPM_P2
2022/12/03 00:01:39;;;;;;;15.85;7.97;;;;;;;-0.98;100.00;101022.66;1752967;82;20991;-65
2022/12/03 00:04:05;;;;;;;16.80;8.20;;;;;;;-0.98;100.00;101016.47;1752855;81;21039;-64
2022/12/03 00:06:32;;;;;;;12.58;6.95;;;;;;;-0.98;100.00;101021.31;1752468;82;21089;-64
2022/12/03 00:08:58;;;;;;;27.67;8.28;;;;;;;-0.97;100.00;101018.98;1752838;82;21617;-65
2022/12/03 00:11:24;;;;;;;14.58;6.95;;;;;;;-0.94;100.00;101024.48;1752887;82;21007;-64
2022/12/03 00:13:51;;;;;;;14.07;7.47;;;;;;;-0.94;100.00;101020.48;1752791;82;21039;-64
2022/12/03 00:16:17;;;;;;;18.40;7.45;;;;;;;-0.91;100.00;101023.66;1752825;82;21011;-64
2022/12/03 00:18:43;;;;;;;14.10;7.30;;;;;;;-0.92;100.00;101026.52;1752926;82;21047;-64
2022/12/03 00:21:10;;;;;;;;;;;;;;;-0.92;100.00;101026.52;1755391;82;21042;-65
2022/12/03 00:23:36;;;;;;;14.10;7.05;;;;;;;-0.93;100.00;101028.84;1752717;81;20126;-65
2022/12/03 00:26:03;;;;;;;12.18;6.53;;;;;;;-0.95;100.00;101029.00;1747967;81;21549;-64
2022/12/03 00:28:29;;;;;;;14.25;6.87;;;;;;;-0.97;100.00;101028.34;1752065;82;21105;-64
2022/12/03 00:30:56;;;;;;;12.07;6.75;;;;;;;-0.94;100.00;101026.67;1751155;82;21074;-64
2022/12/03 00:33:24;;;;;;;14.07;6.87;;;;;;;-0.94;100.00;101031.17;1751241;82;21636;-65
2022/12/03 00:35:50;;;;;;;13.32;6.90;;;;;;;-0.90;100.00;101025.34;1751703;82;21680;-65
2022/12/03 00:38:16;;;;;;;15.63;6.90;;;;;;;-0.89;100.00;101031.52;1722328;82;21371;-64
2022/12/03 00:40:43;;;;;;;14.87;6.62;;;;;;;-0.88;100.00;101030.00;1751633;82;21066;-64
2022/12/03 00:43:09;;;;;;;12.80;6.35;;;;;;;-0.87;100.00;101032.18;1752374;82;21589;-64
2022/12/03 00:45:36;;;;;;;10.98;6.20;;;;;;;-0.86;100.00;101033.86;1752650;82;21074;-65
2022/12/03 00:48:03;;;;;;;11.15;6.22;;;;;;;-0.87;100.00;101036.19;1752643;82;21079;-65
2022/12/03 00:50:29;;;;;;;11.35;5.97;;;;;;;-0.86;100.00;101034.70;1741518;82;21058;-65
2022/12/03 00:52:56;;;;;;;13.32;6.50;;;;;;;-0.84;100.00;101034.52;1751771;82;21087;-64
2022/12/03 00:55:23;;;;;;;11.63;6.30;;;;;;;-0.84;100.00;101031.84;1752016;82;21062;-64
2022/12/03 00:57:49;;;;;;;10.65;5.95;;;;;;;-0.86;100.00;101032.03;1752074;82;21062;-64
2022/12/03 01:00:16;;;;;;;13.55;7.12;;;;;;;-0.87;100.00;101033.02;1751579;82;21054;-65
2022/12/03 01:02:43;;;;;;;19.60;6.80;;;;;;;-0.88;100.00;101034.51;1740865;82;21027;-64
2022/12/03 01:05:09;;;;;;;11.25;5.40;;;;;;;-0.85;100.00;101035.02;1752126;82;21094;-64
2022/12/03 01:07:37;;;;;;;14.00;6.42;;;;;;;-0.84;100.00;101036.69;1751978;82;21655;-65
2022/12/03 01:10:04;;;;;;;11.43;5.87;;;;;;;-0.84;100.00;101034.52;1751805;82;21034;-65
2022/12/03 01:12:32;;;;;;;13.18;6.85;;;;;;;-0.83;100.00;101036.20;1740683;82;21197;-64
2022/12/03 01:14:59;;;;;;;11.95;6.03;;;;;;;-0.85;100.00;101031.00;1751527;82;21038;-64
2022/12/03 01:17:26;;;;;;;12.37;6.08;;;;;;;-0.84;100.00;101036.69;1751645;82;21142;-64
2022/12/03 01:19:52;;;;;;;11.03;5.95;;;;;;;-0.86;100.00;101035.20;1751459;82;21054;-64
2022/12/03 01:22:20;;;;;;;11.95;5.83;;;;;;;-0.88;100.00;101038.02;1751356;82;21088;-64
2022/12/03 01:24:46;;;;;;;;;;;;;;;-0.91;100.00;101028.16;1754391;82;21030;-64
2022/12/03 01:27:12;;;;;;;13.75;5.22;;;;;;;-0.92;100.00;101043.89;1751559;82;20138;-64
2022/12/03 01:29:39;;;;;;;11.75;5.45;;;;;;;-0.99;100.00;101038.34;1751451;82;21003;-66
2022/12/03 01:32:18;;;;;;;11.78;5.78;;;;;;;-0.97;100.00;101040.37;1751516;82;21580;-64
2022/12/03 01:34:51;;;;;;;13.05;6.03;;;;;;;-0.97;100.00;101039.03;1751733;82;21023;-64
2022/12/03 01:37:20;;;;;;;12.05;5.70;;;;;;;-0.98;100.00;101045.38;1751706;82;21121;-64
2022/12/03 01:39:47;;;;;;;12.50;6.35;;;;;;;-0.97;100.00;101039.53;1751641;82;21058;-64
2022/12/03 01:42:25;;;;;;;10.55;5.78;;;;;;;-0.92;100.00;101048.70;1740182;81;21063;-64
2022/12/03 01:44:55;;;;;;;11.03;5.50;;;;;;;-0.94;100.00;101048.05;1737979;82;20996;-64
2022/12/03 01:47:31;;;;;;;8.45;4.67;;;;;;;-0.90;100.00;101049.39;1737804;82;21088;-64
2022/12/03 01:50:18;;;;;;;15.00;6.08;;;;;;;-0.94;100.00;101046.72;1737707;82;21569;-65
2022/12/03 01:52:45;;;;;;;10.77;5.50;;;;;;;-0.97;100.00;101052.39;1738057;82;21098;-65
2022/12/03 01:55:17;;;;;;;8.45;4.78;;;;;;;-0.97;100.00;101051.56;1738006;82;21321;-64
2022/12/03 01:57:51;;;;;;;10.55;5.30;;;;;;;-0.97;100.00;101051.06;1737747;82;21114;-64
2022/12/03 02:00:20;;;;;;;11.05;5.65;;;;;;;-0.95;100.00;101052.22;1738997;82;21000;-64
2022/12/03 02:02:49;;;;;;;10.15;5.55;;;;;;;-0.96;100.00;101047.89;1738649;82;21028;-64
2022/12/03 02:05:22;;;;;;;10.08;5.45;;;;;;;-0.96;100.00;101048.73;1737305;82;20984;-64
2022/12/03 02:07:49;;;;;;;10.55;5.28;;;;;;;-0.96;100.00;101050.07;1673895;85;21072;-63
2022/12/03 02:10:17;;;;;;;10.13;4.90;;;;;;;-1.00;100.00;101055.41;1671311;86;20981;-64
2022/12/03 02:12:52;;;;;;;11.90;5.42;;;;;;;-0.97;100.00;101056.91;1652042;86;21627;-65
2022/12/03 02:15:18;;;;;;;13.38;5.28;;;;;;;-0.98;100.00;101053.39;1742227;82;21000;-64
2022/12/03 02:17:44;;;;;;;9.28;5.05;;;;;;;-0.96;100.00;101056.75;1744386;82;21089;-64
2022/12/03 02:20:11;;;;;;;;;;;;;;;-0.98;100.00;101053.89;1747157;82;21022;-65
2022/12/03 05:47:21;;;;;;;14.95;6.87;;;;;;;-2.88;100.00;101186.17;1817092;79;23500;-64
2022/12/03 05:49:47;;;;;;;11.20;5.53;;;;;;;-2.73;100.00;101196.16;1772535;80;21082;-64
2022/12/03 05:52:14;;;;;;;12.75;6.08;;;;;;;-2.45;100.00;101191.62;1761693;81;21125;-64
2022/12/03 05:54:40;;;;;;;11.55;5.97;;;;;;;-2.28;100.00;101196.60;1763499;79;21640;-65
2022/12/03 05:57:06;;;;;;;10.58;5.70;;;;;;;-2.14;100.00;101192.89;1763359;81;21066;-64
2022/12/03 05:59:33;;;;;;;11.15;6.12;;;;;;;-1.99;100.00;101191.84;1763640;81;21018;-65
2022/12/03 06:01:59;;;;;;;10.90;5.87;;;;;;;-1.88;100.00;101200.09;1763547;81;21015;-64
2022/12/03 06:04:25;;;;;;;11.25;5.60;;;;;;;-1.78;100.00;101195.00;1763686;81;21030;-65
2022/12/03 06:06:52;;;;;;;17.10;7.83;;;;;;;-1.71;100.00;101200.05;1763607;81;21568;-65
2022/12/03 06:09:18;;;;;;;;;;;;;;;-1.63;100.00;101205.42;1765991;81;21043;-65
2022/12/03 06:11:44;;;;;;;9.78;5.20;;;;;;;-1.59;100.00;101206.78;1750304;81;20128;-64
2022/12/03 06:14:11;;;;;;;11.15;6.10;;;;;;;-1.59;100.00;101209.45;1733429;83;21062;-65
2022/12/03 06:16:37;;;;;;;10.88;5.60;;;;;;;-1.53;100.00;101207.52;1736331;80;21517;-66
2022/12/03 06:19:03;;;;;;;8.73;5.37;;;;;;;-1.47;100.00;101206.52;1745667;81;21641;-63
2022/12/03 06:21:30;;;;;;;9.78;5.28;;;;;;;-1.42;100.00;101206.41;1747069;81;20998;-65
2022/12/03 06:23:56;;;;;;;12.37;6.67;;;;;;;-1.39;100.00;101210.09;1754508;81;21564;-64
2022/12/03 06:26:22;;;;;;;10.03;6.42;;;;;;;-1.35;100.00;101210.61;1753409;81;21010;-63
2022/12/03 06:28:49;;;;;;;14.07;7.25;;;;;;;-1.31;100.00;101210.63;1719388;81;21049;-65
2022/12/03 06:31:15;;;;;;;10.28;6.22;;;;;;;-1.31;100.00;101214.12;1750349;81;21488;-64
2022/12/03 06:33:42;;;;;;;12.78;5.70;;;;;;;-1.28;100.00;101210.31;1738116;81;21108;-64
2022/12/03 06:36:08;;;;;;;11.80;6.08;;;;;;;-1.24;100.00;101215.16;1737648;81;21026;-64
2022/12/03 06:38:34;;;;;;;11.38;4.87;;;;;;;-1.20;100.00;101217.01;1735340;81;21042;-64
2022/12/03 06:41:01;;;;;;;13.18;6.08;;;;;;;-1.16;100.00;101215.69;1740369;81;21571;-63
2022/12/03 06:43:27;;;;;;;10.85;6.50;;;;;;;-1.12;100.00;101225.91;1744869;81;21010;-65
2022/12/03 06:45:54;;;;;;;13.13;6.50;;;;;;;-1.11;100.00;101224.92;1743802;81;21102;-65
2022/12/03 06:48:20;;;;;;;11.88;6.00;;;;;;;-1.08;100.00;101227.27;1736986;82;21588;-64
2022/12/03 06:50:46;;;;;;;13.48;6.95;;;;;;;-1.07;100.00;101228.95;1735082;82;21014;-64
2022/12/03 06:53:13;;;;;;;15.80;7.30;;;;;;;-1.04;100.00;101230.46;1737222;82;21034;-64
2022/12/03 06:55:39;;;;;;;16.77;7.17;;;;;;;-1.05;100.00;101232.78;1736701;82;21093;-64
2022/12/03 06:58:05;;;;;;;13.18;7.75;;;;;;;-1.04;100.00;101236.65;1734025;82;21521;-66
2022/12/03 07:00:34;;;;;;;15.80;8.03;;;;;;;-1.00;100.00;101237.16;1736556;82;21577;-65
2022/12/03 07:03:00;;;;;;;18.02;9.23;;;;;;;-1.01;100.00;101232.31;1727217;82;20979;-64
2022/12/03 07:05:26;;;;;;;13.03;7.33;;;;;;;-0.98;100.00;101235.16;1720918;83;22395;-64
2022/12/03 07:07:54;;;;;;;14.75;6.85;;;;;;;-0.96;100.00;101239.02;1721243;83;21086;-65
2022/12/03 07:10:21;;;;;;;12.03;6.87;;;;;;;-0.97;100.00;101238.17;1721257;83;21058;-64
2022/12/03 07:12:47;;;;;;;16.75;8.08;;;;;;;-0.93;100.00;101236.02;1721065;83;21030;-64
2022/12/03 07:15:14;;;;;;;17.73;8.58;;;;;;;-0.95;100.00;101238.00;1721000;83;21094;-65
2022/12/03 07:17:41;;;;;;;16.02;8.55;;;;;;;-0.97;100.00;101237.33;1700046;82;21094;-65
2022/12/03 07:20:09;;;;;;;23.77;9.45;;;;;;;-1.02;100.00;101241.81;1727165;82;21365;-64
2022/12/03 07:22:35;;;;;;;14.75;8.10;;;;;;;-1.02;100.00;101245.83;1746285;82;21059;-64
2022/12/03 07:25:02;;;;;;;;;;;;;;;-1.01;100.00;101252.86;1740427;82;21167;-63
2022/12/03 07:27:28;;;;;;;17.60;8.43;;;;;;;-0.95;100.00;101237.50;1747046;82;20153;-63
2022/12/03 07:29:54;;;;;;;15.35;7.80;;;;;;;-0.97;100.00;101248.02;1731781;82;21063;-64
2022/12/03 07:32:21;;;;;;;16.50;8.50;;;;;;;-1.04;100.00;101244.67;1680762;85;21159;-64
2022/12/03 07:34:47;;;;;;;18.02;9.33;;;;;;;-1.04;100.00;101249.17;1684800;85;21167;-63
2022/12/03 07:37:14;;;;;;;14.78;8.60;;;;;;;-1.05;100.00;101255.50;1672272;84;21145;-63
2022/12/03 07:39:40;;;;;;;18.17;8.83;;;;;;;-1.01;100.00;101249.69;1683940;85;21590;-63
2022/12/03 07:42:08;;;;;;;20.77;10.58;;;;;;;-0.99;100.00;101250.84;1701077;84;21054;-62
2022/12/03 07:44:34;;;;;;;21.90;12.10;;;;;;;-0.96;100.00;101263.92;1684951;85;21035;-63
2022/12/03 07:47:01;;;;;;;22.40;11.22;;;;;;;-0.99;100.00;101258.05;1692862;84;21051;-63
2022/12/03 07:49:27;;;;;;;19.35;11.12;;;;;;;-1.02;100.00;101264.04;1746957;81;21083;-63
2022/12/03 07:51:54;;;;;;;20.02;11.10;;;;;;;-1.00;100.00;101263.89;1747010;82;21071;-63
2022/12/03 08:02:19;;;;;;;20.35;9.95;;;;;;;-1.07;100.00;101270.87;1799399;79;22894;-64
2022/12/03 08:04:45;;;;;;;19.67;9.48;;;;;;;-1.07;100.00;101280.23;1754283;80;21067;-64
2022/12/03 08:07:12;;;;;;;20.08;10.05;;;;;;;-1.08;100.00;101281.22;1751343;81;21608;-64
2022/12/03 08:09:38;;;;;;;17.50;9.85;;;;;;;-1.09;100.00;101289.73;1751255;82;21102;-63
2022/12/03 08:12:16;;;;;;;20.85;9.63;;;;;;;-1.09;100.00;101287.06;1751000;81;21098;-63
2022/12/03 08:14:42;;;;;;;;;;;;;;;-1.07;100.00;101294.93;1748754;81;21552;-63
2022/12/03 08:17:13;;;;;;;23.57;11.25;;;;;;;-1.07;100.00;101298.94;1750686;81;20158;-63
2022/12/03 08:19:45;;;;;;;21.50;10.28;;;;;;;-1.13;100.00;101295.54;1750467;81;21099;-64
2022/12/03 08:22:12;;;;;;;20.60;9.90;;;;;;;-1.12;100.00;101295.39;1745698;81;21618;-64
2022/12/03 08:24:39;;;;;;;21.42;11.08;;;;;;;-1.13;100.00;101293.71;1749630;82;21121;-64
2022/12/03 08:27:18;;;;;;;;;;;;;;;-1.16;100.00;101293.19;1752098;81;21110;-64
2022/12/03 08:29:45;;;;;;;23.92;12.15;;;;;;;-1.17;100.00;101299.55;1749514;82;20130;-64
2022/12/03 08:32:11;;;;;;;23.57;12.13;;;;;;;-1.22;100.00;101299.17;1749715;81;21070;-64
2022/12/03 08:34:42;;;;;;;22.50;11.10;;;;;;;-1.15;100.00;101298.88;1723536;82;21133;-64
2022/12/03 08:37:18;;;;;;;27.10;13.48;;;;;;;-1.07;100.00;101300.27;1720657;82;21070;-64
2022/12/03 08:39:49;;;;;;;30.12;14.55;;;;;;;-1.04;100.00;101305.30;1720938;83;21619;-64
2022/12/03 08:45:38;;;;;;;26.35;12.15;;;;;;;-1.03;100.00;101291.75;1722609;83;21050;-64
2022/12/03 08:48:42;;;;;;;23.22;11.63;;;;;;;-1.01;100.00;101298.30;1722501;82;21023;-64
2022/12/03 08:51:26;;;;;;;21.52;10.93;;;;;;;-0.99;100.00;101292.27;1722549;83;21010;-63
2022/12/03 08:53:56;;;;;;;21.68;11.18;;;;;;;-1.03;100.00;101291.75;1722351;82;21620;-63
2022/12/03 08:56:26;;;;;;;23.18;11.22;;;;;;;-0.99;100.00;101294.95;1720692;83;21023;-64
2022/12/03 08:59:09;;;;;;;17.52;11.03;;;;;;;-0.97;100.00;101293.47;1721444;83;22004;-64
2022/12/03 09:01:42;;;;;;;21.23;10.50;;;;;;;-0.94;100.00;101298.49;1710027;83;21561;-64
2022/12/03 09:04:38;;;;;;;25.17;11.20;;;;;;;-0.90;100.00;101294.50;1738465;81;21043;-64
2022/12/03 09:07:04;;;;;;;18.37;10.43;;;;;;;-0.89;100.00;101294.36;1747381;82;21517;-64
2022/12/03 09:09:30;;;;;;;19.25;11.03;;;;;;;-0.93;100.00;101294.34;1747042;81;21612;-64
2022/12/03 09:11:57;;;;;;;19.02;10.35;;;;;;;-0.90;100.00;101291.83;1747174;82;21011;-64
2022/12/03 09:14:23;;;;;;;16.52;9.90;;;;;;;-0.88;100.00;101294.67;1746858;81;21051;-64
2022/12/03 09:16:54;;;;;;;17.07;9.83;;;;;;;-0.84;100.00;101291.19;1746710;82;21529;-64
2022/12/03 09:19:19;;;;;;;20.82;10.15;;;;;;;-0.83;100.00;101288.86;1746649;81;21068;-65
2022/12/03 09:21:45;;;;;;;18.23;10.20;;;;;;;-0.88;100.00;101289.33;1746815;81;21055;-65
2022/12/03 09:24:11;;;;;;;20.23;10.63;;;;;;;-0.88;100.00;101296.50;1747122;82;22022;-65
2022/12/03 09:26:38;;;;;;;23.50;10.08;;;;;;;-0.87;100.00;101293.69;1746476;81;20987;-64
2022/12/03 09:29:04;;;;;;;23.02;10.63;;;;;;;-0.86;100.00;101284.67;1746915;82;21063;-65
2022/12/03 09:31:32;;;;;;;20.15;10.32;;;;;;;-0.81;100.00;101292.20;1746505;81;20991;-65
2022/12/03 09:34:02;;;;;;;19.75;10.50;;;;;;;-0.80;100.00;101285.36;1746773;82;21063;-65
2022/12/03 09:36:29;;;;;;;18.82;10.45;;;;;;;-0.80;100.00;101290.71;1746549;81;20999;-65
2022/12/03 09:38:55;;;;;;;21.07;11.00;;;;;;;-0.83;100.00;101287.52;1746880;82;21019;-65
2022/12/03 09:41:21;;;;;;;18.42;10.68;;;;;;;-0.83;100.00;101295.05;1746567;81;21429;-64
2022/12/03 09:43:48;;;;;;;18.50;10.35;;;;;;;-0.80;100.00;101296.05;1746765;82;22001;-64
2022/12/03 09:46:16;;;;;;;22.10;11.70;;;;;;;-0.80;100.00;101299.23;1746469;81;21003;-64
2022/12/03 09:48:42;;;;;;;;;;;;;;;-0.78;100.00;101302.59;1744716;82;21606;-64
2022/12/03 09:51:09;;;;;;;19.80;9.83;;;;;;;-0.80;100.00;101299.23;1745811;82;20554;-65
2022/12/03 09:53:35;;;;;;;19.80;10.98;;;;;;;-0.91;100.00;101297.67;1745394;81;21074;-65
2022/12/03 09:56:02;;;;;;;27.07;12.90;;;;;;;-0.95;100.00;101300.81;1746794;82;21062;-65
2022/12/03 10:01:52;;;;;;;22.77;12.15;;;;;;;-0.95;100.00;101298.98;1798787;79;22948;-62
2022/12/03 10:04:19;;;;;;;20.55;11.03;;;;;;;-0.99;100.00;101304.30;1744015;80;21615;-63
2022/12/03 10:06:45;;;;;;;18.82;10.88;;;;;;;-0.98;100.00;101306.48;1726174;83;21116;-63
2022/12/03 10:09:13;;;;;;;20.77;11.57;;;;;;;-0.96;100.00;101308.52;1726021;82;21172;-62
2022/12/03 10:11:39;;;;;;;20.32;11.38;;;;;;;-0.95;100.00;101308.34;1727625;83;21081;-63
2022/12/03 10:14:06;;;;;;;20.92;12.35;;;;;;;-0.94;100.00;101312.70;1729710;81;21106;-63
2022/12/03 10:16:35;;;;;;;18.82;11.48;;;;;;;-0.96;100.00;101313.86;1729204;83;21098;-63
2022/12/03 10:19:27;;;;;;;20.32;10.45;;;;;;;-0.98;100.00;101307.33;1728681;81;21951;-63
2022/12/03 10:21:54;;;;;;;20.37;11.68;;;;;;;-1.02;100.00;101312.64;1729372;83;21448;-65
2022/12/03 10:24:29;;;;;;;;;;;;;;;-1.11;100.00;101310.45;1732349;83;21624;-65
2022/12/03 10:26:59;;;;;;;22.45;11.90;;;;;;;-1.12;100.00;101315.93;1697194;84;20434;-65
2022/12/03 10:29:29;;;;;;;22.80;11.78;;;;;;;-1.21;100.00;101311.05;1684054;85;21083;-65
2022/12/03 10:32:01;;;;;;;21.33;11.30;;;;;;;-1.22;100.00;101313.38;1682182;85;21072;-64
2022/12/03 10:34:35;;;;;;;21.93;10.93;;;;;;;-1.24;100.00;101301.18;1670378;84;21601;-65
2022/12/03 10:37:13;;;;;;;19.02;11.30;;;;;;;-1.28;100.00;101313.17;1696019;84;21027;-65
2022/12/03 10:39:57;;;;;;;18.15;10.55;;;;;;;-1.31;100.00;101317.50;1695859;84;21111;-64
2022/12/03 14:21:00;;;;;;;30.25;18.05;;;;;;;-3.87;100.00;101462.27;1815736;79;22272;-63
2022/12/03 14:23:28;;;;;;;23.80;13.80;;;;;;;-3.76;100.00;101467.48;1753386;80;21045;-64
2022/12/03 14:26:04;;;;;;;16.97;9.65;;;;;;;-3.48;100.00;101470.66;1744816;79;21481;-64
2022/12/03 14:28:30;;;;;;;16.97;9.03;;;;;;;-3.32;100.00;101474.08;1724626;81;21117;-63
2022/12/03 14:30:56;;;;;;;17.12;9.53;;;;;;;-3.20;100.00;101467.64;1745774;79;20961;-63
2022/12/03 14:33:23;;;;;;;15.90;8.25;;;;;;;-3.07;100.00;101470.37;1745134;81;21354;-64
2022/12/03 14:35:52;;;;;;;15.38;8.98;;;;;;;-2.95;100.00;101463.55;1744126;81;21452;-63
2022/12/03 14:38:17;;;;;;;13.08;8.18;;;;;;;-2.87;100.00;101461.02;1745483;80;21077;-63
2022/12/03 14:40:48;;;;;;;18.92;9.05;;;;;;;-2.82;100.00;101466.26;1746217;80;21090;-63
2022/12/03 14:43:23;;;;;;;18.12;10.00;;;;;;;-2.77;100.00;101473.34;1747119;81;21065;-63
2022/12/03 14:45:53;;;;;;;17.30;9.83;;;;;;;-2.71;100.00;101469.25;1696200;83;21033;-63
2022/12/03 14:48:21;;;;;;;19.15;9.55;;;;;;;-2.69;100.00;101469.44;1711419;83;21126;-63
2022/12/03 14:50:48;;;;;;;13.45;8.40;;;;;;;-2.64;100.00;101467.20;1686027;83;21082;-63
2022/12/03 14:53:28;;;;;;;18.37;10.48;;;;;;;-2.64;100.00;101469.87;1714384;82;21810;-64
2022/12/03 14:55:58;;;;;;;15.28;8.23;;;;;;;-2.64;100.00;101474.36;1709231;83;21054;-63
2022/12/03 14:58:29;;;;;;;12.80;7.75;;;;;;;-2.69;100.00;101479.27;1708017;83;21082;-64
2022/12/03 15:00:56;;;;;;;14.03;7.72;;;;;;;-2.71;100.00;101481.25;1706645;83;21118;-64
2022/12/03 15:03:22;;;;;;;14.45;8.08;;;;;;;-2.72;100.00;101487.55;1708167;83;21593;-64
2022/12/03 15:05:48;;;;;;;23.67;13.00;;;;;;;-2.71;100.00;101483.91;1705800;82;21102;-63
2022/12/03 15:08:15;;;;;;;18.15;11.12;;;;;;;-2.70;100.00;101485.11;1706468;83;21531;-63
2022/12/03 15:10:41;;;;;;;17.65;9.83;;;;;;;-2.70;100.00;101491.78;1709158;82;21067;-63
2022/12/03 15:13:18;;;;;;;14.40;8.05;;;;;;;-2.65;100.00;101481.50;1707414;83;21149;-63
2022/12/03 15:15:50;;;;;;;16.75;9.48;;;;;;;-2.65;100.00;101489.99;1702083;83;21014;-64
2022/12/03 15:18:24;;;;;;;14.63;8.18;;;;;;;-2.68;100.00;101498.28;1706898;82;21699;-64
2022/12/03 15:20:51;;;;;;;17.95;8.98;;;;;;;-2.66;100.00;101492.33;1709562;83;21062;-64
2022/12/03 15:23:17;;;;;;;18.50;9.05;;;;;;;-2.66;100.00;101494.48;1709129;83;21625;-63
2022/12/03 15:25:44;;;;;;;15.60;8.35;;;;;;;-2.64;100.00;101500.53;1709301;83;21081;-63
2022/12/03 15:28:10;;;;;;;13.65;8.58;;;;;;;-2.61;100.00;101502.90;1707323;83;21071;-63
2022/12/03 15:30:37;;;;;;;17.25;9.98;;;;;;;-2.58;100.00;101504.43;1708899;83;21070;-63
2022/12/03 15:33:12;;;;;;;17.65;9.98;;;;;;;-2.58;100.00;101509.76;1709367;83;21070;-63
2022/12/03 15:35:41;;;;;;;16.80;8.70;;;;;;;-2.60;100.00;101513.92;1708929;83;21050;-64
2022/12/03 15:38:10;;;;;;;14.83;8.45;;;;;;;-2.60;100.00;101521.08;1707262;83;21090;-63
2022/12/03 15:40:39;;;;;;;15.88;8.30;;;;;;;-2.67;100.00;101519.48;1707533;83;21007;-63
2022/12/03 15:43:06;;;;;;;14.85;9.25;;;;;;;-2.68;100.00;101523.61;1709456;83;21113;-65
2022/12/03 15:45:33;;;;;;;16.17;9.03;;;;;;;-2.66;100.00;101522.47;1708116;83;21137;-63
2022/12/03 15:48:00;;;;;;;16.95;9.70;;;;;;;-2.64;100.00;101522.34;1682227;83;21063;-63
2022/12/03 15:50:26;;;;;;;;;;;;;;;-2.63;100.00;101538.20;1708581;83;21078;-64
2022/12/03 15:52:53;;;;;;;20.70;9.73;;;;;;;-2.62;100.00;101534.53;1709122;83;20733;-64
2022/12/03 15:55:19;;;;;;;16.07;8.48;;;;;;;-2.65;100.00;101528.65;1721833;83;21071;-63
2022/12/03 15:57:46;;;;;;;17.80;9.98;;;;;;;-2.62;100.00;101529.20;1721709;83;21165;-62
2022/12/03 16:00:15;;;;;;;16.02;9.40;;;;;;;-2.61;100.00;101524.72;1713628;83;21023;-64
2022/12/03 16:02:46;;;;;;;15.03;8.43;;;;;;;-2.62;100.00;101528.36;1703968;83;21403;-59
2022/12/03 16:05:22;;;;;;;16.23;8.93;;;;;;;-2.65;100.00;101525.50;1706281;83;21423;-62
2022/12/03 16:07:53;;;;;;;15.58;9.18;;;;;;;-2.64;100.00;101526.34;1709288;83;21441;-63
2022/12/03 16:10:20;;;;;;;14.30;8.53;;;;;;;-2.61;100.00;101528.72;1709957;83;21577;-64
2022/12/03 16:12:51;;;;;;;;;;;;;;;-2.59;100.00;101528.95;1710076;83;21539;-62
2022/12/03 16:15:19;;;;;;;17.35;8.88;;;;;;;-2.58;100.00;101525.76;1722666;83;20550;-61
2022/12/03 16:17:49;;;;;;;18.30;8.78;;;;;;;-2.64;100.00;101527.67;1722281;82;21074;-63
2022/12/03 16:20:25;;;;;;;15.45;8.30;;;;;;;-2.63;100.00;101525.36;1719296;83;21023;-63
2022/12/03 16:22:57;;;;;;;14.93;8.30;;;;;;;-2.60;100.00;101526.41;1718201;83;21055;-63
2022/12/03 16:25:32;;;;;;;16.25;8.25;;;;;;;-2.59;100.00;101530.28;1718316;83;21066;-64
2022/12/03 16:28:13;;;;;;;16.75;8.75;;;;;;;-2.56;100.00;101528.66;1692306;83;21055;-63
2022/12/03 16:30:56;;;;;;;;;;;;;;;-2.55;100.00;101518.31;1693267;83;21035;-64
2022/12/03 16:33:23;;;;;;;16.17;9.05;;;;;;;-2.51;100.00;101518.87;1718155;83;20145;-64
2022/12/03 16:36:29;;;;;;;15.45;8.70;;;;;;;-2.55;100.00;101526.31;1718573;83;21508;-64
2022/12/03 16:39:15;;;;;;;16.10;9.25;;;;;;;-2.54;100.00;101528.48;1718248;83;21031;-64
2022/12/03 16:41:43;;;;;;;17.75;9.23;;;;;;;-2.48;100.00;101533.76;1716863;83;21047;-63
2022/12/03 16:44:29;;;;;;;21.33;11.60;;;;;;;-2.48;100.00;101533.27;1718484;83;21620;-63
2022/12/03 16:47:01;;;;;;;20.90;11.65;;;;;;;-2.49;100.00;101535.58;1714044;83;20982;-63
2022/12/03 16:49:34;;;;;;;19.00;10.50;;;;;;;-2.47;100.00;101536.27;1705090;83;21011;-64
2022/12/03 16:52:16;;;;;;;21.42;11.30;;;;;;;-2.47;100.00;101535.42;1705485;83;21007;-62
2022/12/03 16:54:48;;;;;;;19.57;10.88;;;;;;;-2.44;100.00;101531.97;1703322;83;20988;-63
2022/12/03 16:57:14;;;;;;;19.17;11.20;;;;;;;-2.39;100.00;101539.06;1705286;83;21476;-63
2022/12/03 16:59:40;;;;;;;19.15;11.08;;;;;;;-2.37;100.00;101534.41;1694344;83;21433;-63
2022/12/03 17:02:09;;;;;;;20.25;10.63;;;;;;;-2.35;100.00;101528.94;1690146;85;21078;-64
2022/12/03 17:04:36;;;;;;;20.88;11.65;;;;;;;-2.29;100.00;101529.69;1690148;85;21043;-64
2022/12/03 17:07:02;;;;;;;20.50;10.95;;;;;;;-2.27;100.00;101536.58;1690018;85;21051;-64
2022/12/03 17:09:29;;;;;;;18.77;11.05;;;;;;;-2.24;100.00;101532.28;1690315;85;21078;-66
2022/12/03 17:11:55;;;;;;;21.70;11.15;;;;;;;-2.21;100.00;101539.15;1690425;85;21095;-64
2022/12/03 17:14:22;;;;;;;19.90;11.00;;;;;;;-2.19;100.00;101543.34;1696781;83;21031;-64
2022/12/03 17:16:48;;;;;;;20.12;10.00;;;;;;;-2.16;100.00;101543.56;1717959;83;21090;-63
2022/12/03 17:19:14;;;;;;;15.00;8.98;;;;;;;-2.12;100.00;101544.93;1717601;83;21039;-63
2022/12/03 17:21:41;;;;;;;16.57;8.55;;;;;;;-2.10;100.00;101545.64;1717729;83;21611;-63
2022/12/03 17:24:08;;;;;;;18.80;9.53;;;;;;;-2.11;100.00;101546.62;1718004;83;22344;-64
2022/12/03 17:26:34;;;;;;;20.17;9.03;;;;;;;-2.10;100.00;101550.98;1717990;83;21554;-63
2022/12/03 17:29:01;;;;;;;14.35;8.55;;;;;;;-2.07;100.00;101544.02;1708715;83;21083;-63
2022/12/03 17:31:27;;;;;;;;;;;;;;;-2.06;100.00;101547.03;1707165;83;20987;-63
2022/12/03 17:33:56;;;;;;;15.75;8.48;;;;;;;-2.06;100.00;101555.89;1702003;83;20613;-63
2022/12/03 17:36:24;;;;;;;16.02;8.53;;;;;;;-2.11;100.00;101555.47;1703549;83;21043;-63
2022/12/03 17:38:51;;;;;;;13.35;8.08;;;;;;;-2.06;100.00;101551.03;1705464;83;21523;-63
2022/12/03 17:41:17;;;;;;;14.80;8.40;;;;;;;-2.03;100.00;101552.92;1703506;83;21561;-62
2022/12/03 17:43:43;;;;;;;14.60;8.78;;;;;;;-2.01;100.00;101560.27;1704451;83;21015;-62
2022/12/03 17:46:10;;;;;;;13.55;8.40;;;;;;;-2.03;100.00;101566.27;1705961;83;21034;-63
2022/12/03 17:48:36;;;;;;;18.32;8.43;;;;;;;-2.01;100.00;101568.28;1703568;83;21565;-63
2022/12/03 17:51:02;;;;;;;15.23;8.75;;;;;;;-1.95;100.00;101568.70;1704764;83;21027;-63
2022/12/03 17:53:29;;;;;;;20.00;9.58;;;;;;;-1.96;100.00;101562.52;1705846;83;21050;-63
2022/12/03 17:55:55;;;;;;;15.43;9.08;;;;;;;-1.99;100.00;101566.81;1702616;83;21074;-63
2022/12/03 17:58:21;;;;;;;18.77;9.30;;;;;;;-1.96;100.00;101575.02;1703542;83;21907;-63
2022/12/03 18:00:48;;;;;;;15.65;7.75;;;;;;;-1.97;100.00;101574.16;1704728;83;21510;-64
2022/12/03 18:03:14;;;;;;;17.25;9.08;;;;;;;-2.00;100.00;101583.80;1702435;83;21039;-63
2022/12/03 18:05:40;;;;;;;19.32;10.55;;;;;;;-2.04;100.00;101582.41;1704651;83;21035;-65
2022/12/03 18:08:07;;;;;;;23.98;13.40;;;;;;;-2.08;100.00;101585.86;1704505;83;21609;-63
2022/12/03 18:10:33;;;;;;;16.27;8.53;;;;;;;-2.09;100.00;101584.17;1702252;83;21012;-63
2022/12/03 18:13:00;;;;;;;15.93;9.58;;;;;;;-2.11;100.00;101586.16;1704514;83;21055;-64
